sensor_id;sensor_type;location;lat;lon;timestamp;P1;durP1;ratioP1;P2;durP2;ratioP2
3081;SDS011;1551;51.046;7.010;2023-07-20T00:02:10;7.05;;;3.10;;
3081;SDS011;1551;51.046;7.010;2023-07-20T00:04:59;6.13;;;2.30;;
3081;SDS011;1551;51.046;7.010;2023-07-20T00:07:48;5.97;;;2.80;;
3081;SDS011;1551;51.046;7.010;2023-07-20T00:10:41;4.78;;;3.10;;
3081;SDS011;1551;51.046;7.010;2023-07-20T00:13:30;5.68;;;2.42;;
3081;SDS011;1551;51.046;7.010;2023-07-20T00:16:19;3.88;;;2.38;;
3081;SDS011;1551;51.046;7.010;2023-07-20T00:19:08;5.15;;;2.45;;
3081;SDS011;1551;51.046;7.010;2023-07-20T00:21:59;4.55;;;2.20;;
3081;SDS011;1551;51.046;7.010;2023-07-20T00:24:48;6.28;;;2.35;;
3081;SDS011;1551;51.046;7.010;2023-07-20T00:27:38;5.00;;;2.70;;
3081;SDS011;1551;51.046;7.010;2023-07-20T00:30:27;7.20;;;2.80;;
3081;SDS011;1551;51.046;7.010;2023-07-20T00:33:16;4.60;;;2.60;;
3081;SDS011;1551;51.046;7.010;2023-07-20T00:36:06;6.55;;;2.50;;
3081;SDS011;1551;51.046;7.010;2023-07-20T00:38:56;7.28;;;2.90;;
3081;SDS011;1551;51.046;7.010;2023-07-20T00:41:45;4.35;;;2.30;;
3081;SDS011;1551;51.046;7.010;2023-07-20T00:44:34;5.03;;;2.60;;
3081;SDS011;1551;51.046;7.010;2023-07-20T00:47:23;4.00;;;3.10;;
3081;SDS011;1551;51.046;7.010;2023-07-20T00:50:12;4.77;;;2.60;;
3081;SDS011;1551;51.046;7.010;2023-07-20T00:53:01;5.80;;;2.70;;
3081;SDS011;1551;51.046;7.010;2023-07-20T00:55:55;4.55;;;2.47;;
3081;SDS011;1551;51.046;7.010;2023-07-20T00:58:44;4.20;;;2.60;;
3081;SDS011;1551;51.046;7.010;2023-07-20T01:01:33;4.40;;;2.60;;
3081;SDS011;1551;51.046;7.010;2023-07-20T01:04:23;5.22;;;2.47;;
3081;SDS011;1551;51.046;7.010;2023-07-20T01:07:55;4.30;;;2.38;;
3081;SDS011;1551;51.046;7.010;2023-07-20T01:10:33;5.38;;;2.80;;
3081;SDS011;1551;51.046;7.010;2023-07-20T01:13:28;7.00;;;3.20;;
3081;SDS011;1551;51.046;7.010;2023-07-20T01:16:18;5.10;;;2.80;;
3081;SDS011;1551;51.046;7.010;2023-07-20T01:19:07;4.20;;;2.60;;
3081;SDS011;1551;51.046;7.010;2023-07-20T01:22:03;5.20;;;3.20;;
3081;SDS011;1551;51.046;7.010;2023-07-20T01:25:07;4.38;;;2.72;;
3081;SDS011;1551;51.046;7.010;2023-07-20T01:31:30;4.90;;;2.90;;
3081;SDS011;1551;51.046;7.010;2023-07-20T01:34:21;4.60;;;2.90;;
3081;SDS011;1551;51.046;7.010;2023-07-20T01:37:12;6.45;;;2.72;;
3081;SDS011;1551;51.046;7.010;2023-07-20T01:40:01;4.70;;;2.60;;
3081;SDS011;1551;51.046;7.010;2023-07-20T01:42:50;4.70;;;2.60;;
3081;SDS011;1551;51.046;7.010;2023-07-20T01:45:41;4.40;;;2.65;;
3081;SDS011;1551;51.046;7.010;2023-07-20T01:48:30;5.43;;;2.92;;
3081;SDS011;1551;51.046;7.010;2023-07-20T01:51:20;5.55;;;3.30;;
3081;SDS011;1551;51.046;7.010;2023-07-20T01:54:11;7.30;;;3.00;;
3081;SDS011;1551;51.046;7.010;2023-07-20T01:57:00;4.68;;;2.85;;
3081;SDS011;1551;51.046;7.010;2023-07-20T01:59:49;7.55;;;2.90;;
3081;SDS011;1551;51.046;7.010;2023-07-20T02:02:38;5.90;;;2.80;;
3081;SDS011;1551;51.046;7.010;2023-07-20T02:05:28;5.72;;;2.72;;
3081;SDS011;1551;51.046;7.010;2023-07-20T02:08:17;3.80;;;2.10;;
3081;SDS011;1551;51.046;7.010;2023-07-20T02:11:07;4.70;;;2.55;;
3081;SDS011;1551;51.046;7.010;2023-07-20T02:13:55;4.97;;;2.60;;
3081;SDS011;1551;51.046;7.010;2023-07-20T02:16:45;4.88;;;3.10;;
3081;SDS011;1551;51.046;7.010;2023-07-20T02:19:34;5.00;;;2.50;;
3081;SDS011;1551;51.046;7.010;2023-07-20T02:22:23;4.60;;;2.40;;
3081;SDS011;1551;51.046;7.010;2023-07-20T02:25:12;5.30;;;2.58;;
3081;SDS011;1551;51.046;7.010;2023-07-20T02:28:01;4.30;;;2.30;;
3081;SDS011;1551;51.046;7.010;2023-07-20T02:30:50;3.10;;;2.20;;
3081;SDS011;1551;51.046;7.010;2023-07-20T02:33:39;5.30;;;2.40;;
3081;SDS011;1551;51.046;7.010;2023-07-20T02:36:28;4.80;;;2.70;;
3081;SDS011;1551;51.046;7.010;2023-07-20T02:39:17;3.53;;;2.50;;
3081;SDS011;1551;51.046;7.010;2023-07-20T02:42:06;4.60;;;2.80;;
3081;SDS011;1551;51.046;7.010;2023-07-20T02:44:55;4.82;;;2.63;;
3081;SDS011;1551;51.046;7.010;2023-07-20T02:47:44;5.67;;;3.47;;
3081;SDS011;1551;51.046;7.010;2023-07-20T02:50:34;7.83;;;2.90;;
3081;SDS011;1551;51.046;7.010;2023-07-20T02:53:24;5.30;;;2.43;;
3081;SDS011;1551;51.046;7.010;2023-07-20T02:56:13;4.78;;;2.90;;
3081;SDS011;1551;51.046;7.010;2023-07-20T02:59:03;5.33;;;2.67;;
3081;SDS011;1551;51.046;7.010;2023-07-20T03:01:53;5.13;;;2.73;;
3081;SDS011;1551;51.046;7.010;2023-07-20T03:04:43;4.50;;;2.70;;
3081;SDS011;1551;51.046;7.010;2023-07-20T03:07:32;4.57;;;2.30;;
3081;SDS011;1551;51.046;7.010;2023-07-20T03:10:21;5.43;;;2.80;;
3081;SDS011;1551;51.046;7.010;2023-07-20T03:13:09;6.70;;;3.03;;
3081;SDS011;1551;51.046;7.010;2023-07-20T03:15:59;6.03;;;2.97;;
3081;SDS011;1551;51.046;7.010;2023-07-20T03:18:48;6.35;;;3.10;;
3081;SDS011;1551;51.046;7.010;2023-07-20T03:21:37;6.50;;;2.85;;
3081;SDS011;1551;51.046;7.010;2023-07-20T03:24:30;5.30;;;3.30;;
3081;SDS011;1551;51.046;7.010;2023-07-20T03:27:19;6.30;;;2.60;;
3081;SDS011;1551;51.046;7.010;2023-07-20T03:30:09;5.60;;;3.40;;
3081;SDS011;1551;51.046;7.010;2023-07-20T03:32:59;4.25;;;2.78;;
3081;SDS011;1551;51.046;7.010;2023-07-20T03:35:48;7.63;;;3.00;;
3081;SDS011;1551;51.046;7.010;2023-07-20T03:38:37;4.72;;;3.40;;
3081;SDS011;1551;51.046;7.010;2023-07-20T03:41:26;6.88;;;3.47;;
3081;SDS011;1551;51.046;7.010;2023-07-20T03:44:15;5.47;;;3.10;;
3081;SDS011;1551;51.046;7.010;2023-07-20T03:47:04;7.07;;;3.30;;
3081;SDS011;1551;51.046;7.010;2023-07-20T03:49:53;4.82;;;3.13;;
3081;SDS011;1551;51.046;7.010;2023-07-20T03:52:42;6.22;;;3.30;;
3081;SDS011;1551;51.046;7.010;2023-07-20T03:55:31;6.25;;;3.40;;
3081;SDS011;1551;51.046;7.010;2023-07-20T03:58:20;5.53;;;3.30;;
3081;SDS011;1551;51.046;7.010;2023-07-20T04:01:10;7.30;;;3.33;;
3081;SDS011;1551;51.046;7.010;2023-07-20T04:03:59;5.47;;;3.50;;
3081;SDS011;1551;51.046;7.010;2023-07-20T04:06:48;5.25;;;3.20;;
3081;SDS011;1551;51.046;7.010;2023-07-20T04:09:37;6.70;;;3.53;;
3081;SDS011;1551;51.046;7.010;2023-07-20T04:12:26;5.00;;;2.90;;
3081;SDS011;1551;51.046;7.010;2023-07-20T04:15:15;6.22;;;3.10;;
3081;SDS011;1551;51.046;7.010;2023-07-20T04:18:04;5.97;;;3.05;;
3081;SDS011;1551;51.046;7.010;2023-07-20T04:20:54;6.07;;;3.43;;
3081;SDS011;1551;51.046;7.010;2023-07-20T04:23:43;7.88;;;3.50;;
3081;SDS011;1551;51.046;7.010;2023-07-20T04:26:32;6.40;;;3.60;;
3081;SDS011;1551;51.046;7.010;2023-07-20T04:29:21;6.43;;;3.97;;
3081;SDS011;1551;51.046;7.010;2023-07-20T04:32:10;4.97;;;3.10;;
3081;SDS011;1551;51.046;7.010;2023-07-20T04:35:00;6.75;;;3.30;;
3081;SDS011;1551;51.046;7.010;2023-07-20T04:37:49;5.57;;;3.20;;
3081;SDS011;1551;51.046;7.010;2023-07-20T04:40:42;6.65;;;3.40;;
3081;SDS011;1551;51.046;7.010;2023-07-20T04:43:32;7.00;;;3.17;;
3081;SDS011;1551;51.046;7.010;2023-07-20T04:46:21;6.85;;;3.33;;
3081;SDS011;1551;51.046;7.010;2023-07-20T04:49:10;6.60;;;3.20;;
3081;SDS011;1551;51.046;7.010;2023-07-20T04:52:03;5.20;;;3.20;;
3081;SDS011;1551;51.046;7.010;2023-07-20T04:54:53;6.35;;;3.40;;
3081;SDS011;1551;51.046;7.010;2023-07-20T04:57:42;7.10;;;3.08;;
3081;SDS011;1551;51.046;7.010;2023-07-20T05:00:32;5.75;;;3.40;;
3081;SDS011;1551;51.046;7.010;2023-07-20T05:03:22;7.28;;;3.10;;
3081;SDS011;1551;51.046;7.010;2023-07-20T05:06:11;5.07;;;3.08;;
3081;SDS011;1551;51.046;7.010;2023-07-20T05:09:01;5.35;;;2.90;;
3081;SDS011;1551;51.046;7.010;2023-07-20T05:11:50;5.95;;;3.30;;
3081;SDS011;1551;51.046;7.010;2023-07-20T05:14:39;5.18;;;3.20;;
3081;SDS011;1551;51.046;7.010;2023-07-20T05:17:30;4.63;;;2.03;;
3081;SDS011;1551;51.046;7.010;2023-07-20T05:20:21;6.90;;;2.55;;
3081;SDS011;1551;51.046;7.010;2023-07-20T05:23:09;5.60;;;3.17;;
3081;SDS011;1551;51.046;7.010;2023-07-20T05:25:58;6.80;;;3.83;;
3081;SDS011;1551;51.046;7.010;2023-07-20T05:28:48;5.17;;;2.90;;
3081;SDS011;1551;51.046;7.010;2023-07-20T05:31:37;4.73;;;2.87;;
3081;SDS011;1551;51.046;7.010;2023-07-20T05:34:26;6.33;;;3.20;;
3081;SDS011;1551;51.046;7.010;2023-07-20T05:37:15;5.17;;;3.80;;
3081;SDS011;1551;51.046;7.010;2023-07-20T05:40:04;6.95;;;4.40;;
3081;SDS011;1551;51.046;7.010;2023-07-20T05:42:55;10.05;;;4.90;;
3081;SDS011;1551;51.046;7.010;2023-07-20T05:45:45;5.90;;;3.72;;
3081;SDS011;1551;51.046;7.010;2023-07-20T05:48:34;6.60;;;4.10;;
3081;SDS011;1551;51.046;7.010;2023-07-20T05:51:24;7.63;;;4.50;;
3081;SDS011;1551;51.046;7.010;2023-07-20T05:54:13;5.37;;;3.27;;
3081;SDS011;1551;51.046;7.010;2023-07-20T05:57:02;7.68;;;4.10;;
3081;SDS011;1551;51.046;7.010;2023-07-20T05:59:51;8.47;;;4.73;;
3081;SDS011;1551;51.046;7.010;2023-07-20T06:02:40;6.43;;;3.40;;
3081;SDS011;1551;51.046;7.010;2023-07-20T06:05:29;5.75;;;4.20;;
3081;SDS011;1551;51.046;7.010;2023-07-20T06:08:19;7.40;;;3.63;;
3081;SDS011;1551;51.046;7.010;2023-07-20T06:11:08;8.00;;;4.07;;
3081;SDS011;1551;51.046;7.010;2023-07-20T06:13:57;6.93;;;5.70;;
3081;SDS011;1551;51.046;7.010;2023-07-20T06:16:45;5.90;;;4.28;;
3081;SDS011;1551;51.046;7.010;2023-07-20T06:19:35;9.32;;;6.90;;
3081;SDS011;1551;51.046;7.010;2023-07-20T06:22:24;7.85;;;5.78;;
3081;SDS011;1551;51.046;7.010;2023-07-20T06:25:13;7.25;;;5.20;;
3081;SDS011;1551;51.046;7.010;2023-07-20T06:28:02;8.15;;;5.38;;
3081;SDS011;1551;51.046;7.010;2023-07-20T06:30:58;8.20;;;6.25;;
3081;SDS011;1551;51.046;7.010;2023-07-20T06:33:48;6.43;;;5.07;;
3081;SDS011;1551;51.046;7.010;2023-07-20T06:36:37;6.38;;;5.38;;
3081;SDS011;1551;51.046;7.010;2023-07-20T06:39:27;8.13;;;5.15;;
3081;SDS011;1551;51.046;7.010;2023-07-20T06:42:16;5.97;;;4.55;;
3081;SDS011;1551;51.046;7.010;2023-07-20T06:45:05;6.80;;;5.00;;
3081;SDS011;1551;51.046;7.010;2023-07-20T06:47:55;11.87;;;6.50;;
3081;SDS011;1551;51.046;7.010;2023-07-20T06:50:43;8.38;;;6.50;;
3081;SDS011;1551;51.046;7.010;2023-07-20T06:53:32;9.95;;;7.20;;
3081;SDS011;1551;51.046;7.010;2023-07-20T06:56:21;8.88;;;7.05;;
3081;SDS011;1551;51.046;7.010;2023-07-20T06:59:10;6.95;;;5.78;;
3081;SDS011;1551;51.046;7.010;2023-07-20T07:01:59;6.25;;;5.45;;
3081;SDS011;1551;51.046;7.010;2023-07-20T07:04:48;9.00;;;6.88;;
3081;SDS011;1551;51.046;7.010;2023-07-20T07:07:37;7.00;;;5.20;;
3081;SDS011;1551;51.046;7.010;2023-07-20T07:10:26;7.13;;;5.80;;
3081;SDS011;1551;51.046;7.010;2023-07-20T07:13:15;8.10;;;5.63;;
3081;SDS011;1551;51.046;7.010;2023-07-20T07:16:04;6.13;;;4.90;;
3081;SDS011;1551;51.046;7.010;2023-07-20T07:18:53;9.47;;;6.53;;
3081;SDS011;1551;51.046;7.010;2023-07-20T07:21:42;8.73;;;7.50;;
3081;SDS011;1551;51.046;7.010;2023-07-20T07:24:33;8.17;;;6.10;;
3081;SDS011;1551;51.046;7.010;2023-07-20T07:27:24;7.63;;;6.45;;
3081;SDS011;1551;51.046;7.010;2023-07-20T07:30:13;7.10;;;4.85;;
3081;SDS011;1551;51.046;7.010;2023-07-20T07:33:02;8.67;;;5.33;;
3081;SDS011;1551;51.046;7.010;2023-07-20T07:35:51;10.00;;;7.35;;
3081;SDS011;1551;51.046;7.010;2023-07-20T07:38:41;6.45;;;5.32;;
3081;SDS011;1551;51.046;7.010;2023-07-20T07:41:30;6.53;;;4.65;;
3081;SDS011;1551;51.046;7.010;2023-07-20T07:44:19;5.93;;;4.75;;
3081;SDS011;1551;51.046;7.010;2023-07-20T07:47:10;5.60;;;3.60;;
3081;SDS011;1551;51.046;7.010;2023-07-20T07:49:58;5.78;;;4.45;;
3081;SDS011;1551;51.046;7.010;2023-07-20T07:52:47;6.88;;;5.35;;
3081;SDS011;1551;51.046;7.010;2023-07-20T07:55:36;5.85;;;4.97;;
3081;SDS011;1551;51.046;7.010;2023-07-20T07:58:25;5.50;;;4.50;;
3081;SDS011;1551;51.046;7.010;2023-07-20T08:01:14;6.95;;;4.63;;
3081;SDS011;1551;51.046;7.010;2023-07-20T08:04:03;8.00;;;5.47;;
3081;SDS011;1551;51.046;7.010;2023-07-20T08:06:52;7.60;;;5.60;;
3081;SDS011;1551;51.046;7.010;2023-07-20T08:09:41;4.72;;;4.05;;
3081;SDS011;1551;51.046;7.010;2023-07-20T08:12:30;5.32;;;3.22;;
3081;SDS011;1551;51.046;7.010;2023-07-20T08:15:19;5.60;;;3.45;;
3081;SDS011;1551;51.046;7.010;2023-07-20T08:18:08;3.92;;;2.80;;
3081;SDS011;1551;51.046;7.010;2023-07-20T08:20:57;5.50;;;3.67;;
3081;SDS011;1551;51.046;7.010;2023-07-20T08:23:46;6.32;;;4.43;;
3081;SDS011;1551;51.046;7.010;2023-07-20T08:26:36;4.70;;;3.97;;
3081;SDS011;1551;51.046;7.010;2023-07-20T08:29:24;5.70;;;4.25;;
3081;SDS011;1551;51.046;7.010;2023-07-20T08:32:13;5.38;;;4.22;;
3081;SDS011;1551;51.046;7.010;2023-07-20T08:35:03;5.68;;;3.20;;
3081;SDS011;1551;51.046;7.010;2023-07-20T08:37:52;3.10;;;2.20;;
3081;SDS011;1551;51.046;7.010;2023-07-20T08:40:42;4.88;;;2.53;;
3081;SDS011;1551;51.046;7.010;2023-07-20T08:43:35;4.70;;;2.60;;
3081;SDS011;1551;51.046;7.010;2023-07-20T08:46:27;3.90;;;2.30;;
3081;SDS011;1551;51.046;7.010;2023-07-20T08:49:17;4.30;;;2.30;;
3081;SDS011;1551;51.046;7.010;2023-07-20T08:52:08;4.50;;;2.20;;
3081;SDS011;1551;51.046;7.010;2023-07-20T08:54:57;2.85;;;1.40;;
3081;SDS011;1551;51.046;7.010;2023-07-20T08:57:46;2.22;;;1.30;;
3081;SDS011;1551;51.046;7.010;2023-07-20T09:00:38;3.40;;;1.50;;
3081;SDS011;1551;51.046;7.010;2023-07-20T09:03:28;3.45;;;1.40;;
3081;SDS011;1551;51.046;7.010;2023-07-20T09:06:17;2.50;;;1.43;;
3081;SDS011;1551;51.046;7.010;2023-07-20T09:09:05;2.75;;;1.30;;
3081;SDS011;1551;51.046;7.010;2023-07-20T09:11:54;2.75;;;1.50;;
3081;SDS011;1551;51.046;7.010;2023-07-20T09:14:44;2.97;;;1.40;;
3081;SDS011;1551;51.046;7.010;2023-07-20T09:17:34;3.38;;;1.70;;
3081;SDS011;1551;51.046;7.010;2023-07-20T09:20:23;4.00;;;1.40;;
3081;SDS011;1551;51.046;7.010;2023-07-20T09:23:12;2.50;;;1.40;;
3081;SDS011;1551;51.046;7.010;2023-07-20T09:26:08;3.40;;;1.40;;
3081;SDS011;1551;51.046;7.010;2023-07-20T09:28:59;2.30;;;1.20;;
3081;SDS011;1551;51.046;7.010;2023-07-20T09:34:50;2.53;;;1.30;;
3081;SDS011;1551;51.046;7.010;2023-07-20T09:37:40;3.00;;;1.20;;
3081;SDS011;1551;51.046;7.010;2023-07-20T09:40:37;3.00;;;1.17;;
3081;SDS011;1551;51.046;7.010;2023-07-20T09:43:29;2.60;;;1.20;;
3081;SDS011;1551;51.046;7.010;2023-07-20T09:46:19;2.35;;;1.20;;
3081;SDS011;1551;51.046;7.010;2023-07-20T09:49:09;2.20;;;1.20;;
3081;SDS011;1551;51.046;7.010;2023-07-20T09:51:58;2.47;;;1.30;;
3081;SDS011;1551;51.046;7.010;2023-07-20T09:54:49;3.65;;;1.40;;
3081;SDS011;1551;51.046;7.010;2023-07-20T09:57:38;2.00;;;1.08;;
3081;SDS011;1551;51.046;7.010;2023-07-20T10:00:28;2.30;;;1.17;;
3081;SDS011;1551;51.046;7.010;2023-07-20T10:03:18;3.40;;;1.30;;
3081;SDS011;1551;51.046;7.010;2023-07-20T10:06:09;2.35;;;1.40;;
3081;SDS011;1551;51.046;7.010;2023-07-20T10:09:02;4.10;;;2.00;;
3081;SDS011;1551;51.046;7.010;2023-07-20T10:11:52;3.33;;;1.20;;
3081;SDS011;1551;51.046;7.010;2023-07-20T10:14:42;5.87;;;2.40;;
3081;SDS011;1551;51.046;7.010;2023-07-20T10:17:59;4.25;;;1.50;;
3081;SDS011;1551;51.046;7.010;2023-07-20T10:20:55;3.53;;;1.40;;
3081;SDS011;1551;51.046;7.010;2023-07-20T10:23:45;3.88;;;1.92;;
3081;SDS011;1551;51.046;7.010;2023-07-20T10:26:35;3.72;;;1.60;;
3081;SDS011;1551;51.046;7.010;2023-07-20T10:29:24;4.22;;;1.70;;
3081;SDS011;1551;51.046;7.010;2023-07-20T10:32:16;3.55;;;1.63;;
3081;SDS011;1551;51.046;7.010;2023-07-20T10:35:11;2.50;;;1.20;;
3081;SDS011;1551;51.046;7.010;2023-07-20T10:38:03;4.55;;;1.63;;
3081;SDS011;1551;51.046;7.010;2023-07-20T10:40:55;3.38;;;1.20;;
3081;SDS011;1551;51.046;7.010;2023-07-20T10:43:45;3.67;;;2.08;;
3081;SDS011;1551;51.046;7.010;2023-07-20T10:49:26;3.00;;;1.37;;
3081;SDS011;1551;51.046;7.010;2023-07-20T10:52:16;2.10;;;1.20;;
3081;SDS011;1551;51.046;7.010;2023-07-20T10:55:15;4.80;;;1.50;;
3081;SDS011;1551;51.046;7.010;2023-07-20T11:01:01;3.20;;;1.25;;
3081;SDS011;1551;51.046;7.010;2023-07-20T11:03:51;2.40;;;0.90;;
3081;SDS011;1551;51.046;7.010;2023-07-20T11:06:48;3.10;;;1.20;;
3081;SDS011;1551;51.046;7.010;2023-07-20T11:09:43;2.30;;;1.00;;
3081;SDS011;1551;51.046;7.010;2023-07-20T11:12:33;2.28;;;1.20;;
3081;SDS011;1551;51.046;7.010;2023-07-20T11:15:22;2.50;;;1.10;;
3081;SDS011;1551;51.046;7.010;2023-07-20T11:18:11;2.50;;;1.10;;
3081;SDS011;1551;51.046;7.010;2023-07-20T11:21:01;2.22;;;0.98;;
3081;SDS011;1551;51.046;7.010;2023-07-20T11:23:54;2.70;;;1.05;;
3081;SDS011;1551;51.046;7.010;2023-07-20T11:26:45;1.70;;;0.80;;
3081;SDS011;1551;51.046;7.010;2023-07-20T11:29:37;2.10;;;1.10;;
3081;SDS011;1551;51.046;7.010;2023-07-20T11:32:26;4.60;;;0.95;;
3081;SDS011;1551;51.046;7.010;2023-07-20T11:35:15;3.47;;;1.00;;
3081;SDS011;1551;51.046;7.010;2023-07-20T11:38:04;1.90;;;0.90;;
3081;SDS011;1551;51.046;7.010;2023-07-20T11:40:53;3.70;;;0.98;;
3081;SDS011;1551;51.046;7.010;2023-07-20T11:43:42;2.70;;;1.00;;
3081;SDS011;1551;51.046;7.010;2023-07-20T11:46:31;1.80;;;0.82;;
3081;SDS011;1551;51.046;7.010;2023-07-20T11:49:20;2.20;;;1.00;;
3081;SDS011;1551;51.046;7.010;2023-07-20T11:52:10;2.00;;;0.98;;
3081;SDS011;1551;51.046;7.010;2023-07-20T11:55:02;2.60;;;1.20;;
3081;SDS011;1551;51.046;7.010;2023-07-20T11:58:02;5.78;;;3.25;;
3081;SDS011;1551;51.046;7.010;2023-07-20T12:00:55;7.60;;;2.80;;
3081;SDS011;1551;51.046;7.010;2023-07-20T12:03:44;16.75;;;7.88;;
3081;SDS011;1551;51.046;7.010;2023-07-20T12:06:33;11.68;;;5.38;;
3081;SDS011;1551;51.046;7.010;2023-07-20T12:09:22;15.23;;;5.85;;
3081;SDS011;1551;51.046;7.010;2023-07-20T12:12:11;11.80;;;5.93;;
3081;SDS011;1551;51.046;7.010;2023-07-20T12:18:05;4.03;;;1.75;;
3081;SDS011;1551;51.046;7.010;2023-07-20T12:20:58;4.85;;;1.80;;
3081;SDS011;1551;51.046;7.010;2023-07-20T12:23:48;4.47;;;2.38;;
3081;SDS011;1551;51.046;7.010;2023-07-20T12:26:37;8.70;;;3.83;;
3081;SDS011;1551;51.046;7.010;2023-07-20T12:29:26;7.03;;;3.38;;
3081;SDS011;1551;51.046;7.010;2023-07-20T12:32:15;5.10;;;2.80;;
3081;SDS011;1551;51.046;7.010;2023-07-20T12:35:04;6.13;;;2.40;;
3081;SDS011;1551;51.046;7.010;2023-07-20T12:37:54;4.13;;;1.90;;
3081;SDS011;1551;51.046;7.010;2023-07-20T12:40:43;3.50;;;1.40;;
3081;SDS011;1551;51.046;7.010;2023-07-20T12:43:32;3.13;;;1.55;;
3081;SDS011;1551;51.046;7.010;2023-07-20T12:46:22;7.90;;;2.80;;
3081;SDS011;1551;51.046;7.010;2023-07-20T12:49:11;6.20;;;1.70;;
3081;SDS011;1551;51.046;7.010;2023-07-20T12:52:00;5.50;;;1.63;;
3081;SDS011;1551;51.046;7.010;2023-07-20T12:54:49;2.00;;;1.00;;
3081;SDS011;1551;51.046;7.010;2023-07-20T12:57:38;2.17;;;1.10;;
3081;SDS011;1551;51.046;7.010;2023-07-20T13:00:27;3.70;;;1.50;;
3081;SDS011;1551;51.046;7.010;2023-07-20T13:03:16;2.45;;;0.90;;
3081;SDS011;1551;51.046;7.010;2023-07-20T13:06:07;3.15;;;1.42;;
3081;SDS011;1551;51.046;7.010;2023-07-20T13:08:56;9.00;;;1.70;;
3081;SDS011;1551;51.046;7.010;2023-07-20T13:11:47;1.80;;;0.93;;
3081;SDS011;1551;51.046;7.010;2023-07-20T13:14:36;2.72;;;1.50;;
3081;SDS011;1551;51.046;7.010;2023-07-20T13:17:25;5.07;;;0.90;;
3081;SDS011;1551;51.046;7.010;2023-07-20T13:20:13;2.40;;;1.00;;
3081;SDS011;1551;51.046;7.010;2023-07-20T13:23:03;2.00;;;0.90;;
3081;SDS011;1551;51.046;7.010;2023-07-20T13:25:53;3.70;;;2.20;;
3081;SDS011;1551;51.046;7.010;2023-07-20T13:28:42;2.40;;;1.20;;
3081;SDS011;1551;51.046;7.010;2023-07-20T13:31:31;4.43;;;1.35;;
3081;SDS011;1551;51.046;7.010;2023-07-20T13:34:20;4.28;;;1.40;;
3081;SDS011;1551;51.046;7.010;2023-07-20T13:37:09;1.80;;;1.00;;
3081;SDS011;1551;51.046;7.010;2023-07-20T13:39:58;2.20;;;1.00;;
3081;SDS011;1551;51.046;7.010;2023-07-20T13:42:46;2.90;;;0.90;;
3081;SDS011;1551;51.046;7.010;2023-07-20T13:45:35;2.50;;;1.50;;
3081;SDS011;1551;51.046;7.010;2023-07-20T13:48:24;2.80;;;1.98;;
3081;SDS011;1551;51.046;7.010;2023-07-20T13:51:14;2.30;;;1.10;;
3081;SDS011;1551;51.046;7.010;2023-07-20T13:54:03;2.70;;;1.38;;
3081;SDS011;1551;51.046;7.010;2023-07-20T13:56:52;4.35;;;1.20;;
3081;SDS011;1551;51.046;7.010;2023-07-20T13:59:40;2.20;;;1.00;;
3081;SDS011;1551;51.046;7.010;2023-07-20T14:02:30;5.70;;;1.20;;
3081;SDS011;1551;51.046;7.010;2023-07-20T14:05:19;2.20;;;0.95;;
3081;SDS011;1551;51.046;7.010;2023-07-20T14:08:08;3.08;;;0.80;;
3081;SDS011;1551;51.046;7.010;2023-07-20T14:10:57;2.63;;;1.10;;
3081;SDS011;1551;51.046;7.010;2023-07-20T14:13:46;3.50;;;1.10;;
3081;SDS011;1551;51.046;7.010;2023-07-20T14:16:35;2.30;;;1.00;;
3081;SDS011;1551;51.046;7.010;2023-07-20T14:19:25;2.40;;;1.50;;
3081;SDS011;1551;51.046;7.010;2023-07-20T14:22:14;2.50;;;1.33;;
3081;SDS011;1551;51.046;7.010;2023-07-20T14:25:03;3.00;;;1.30;;
3081;SDS011;1551;51.046;7.010;2023-07-20T14:27:52;6.60;;;1.38;;
3081;SDS011;1551;51.046;7.010;2023-07-20T14:30:41;1.70;;;0.80;;
3081;SDS011;1551;51.046;7.010;2023-07-20T14:33:31;2.47;;;1.23;;
3081;SDS011;1551;51.046;7.010;2023-07-20T14:36:20;2.13;;;1.30;;
3081;SDS011;1551;51.046;7.010;2023-07-20T14:39:09;2.50;;;1.55;;
3081;SDS011;1551;51.046;7.010;2023-07-20T14:41:58;3.45;;;1.40;;
3081;SDS011;1551;51.046;7.010;2023-07-20T14:44:47;2.22;;;1.00;;
3081;SDS011;1551;51.046;7.010;2023-07-20T14:47:36;3.30;;;1.08;;
3081;SDS011;1551;51.046;7.010;2023-07-20T14:50:25;3.00;;;1.00;;
3081;SDS011;1551;51.046;7.010;2023-07-20T14:53:14;2.50;;;1.13;;
3081;SDS011;1551;51.046;7.010;2023-07-20T14:56:03;1.80;;;0.90;;
3081;SDS011;1551;51.046;7.010;2023-07-20T14:58:52;4.47;;;1.10;;
3081;SDS011;1551;51.046;7.010;2023-07-20T15:01:41;1.90;;;0.93;;
3081;SDS011;1551;51.046;7.010;2023-07-20T15:04:31;2.00;;;1.00;;
3081;SDS011;1551;51.046;7.010;2023-07-20T15:07:20;2.20;;;1.02;;
3081;SDS011;1551;51.046;7.010;2023-07-20T15:10:12;2.10;;;0.80;;
3081;SDS011;1551;51.046;7.010;2023-07-20T15:13:02;2.10;;;1.00;;
3081;SDS011;1551;51.046;7.010;2023-07-20T15:15:51;2.38;;;0.90;;
3081;SDS011;1551;51.046;7.010;2023-07-20T15:18:40;2.58;;;1.58;;
3081;SDS011;1551;51.046;7.010;2023-07-20T15:21:29;1.95;;;0.90;;
3081;SDS011;1551;51.046;7.010;2023-07-20T15:24:19;2.65;;;1.05;;
3081;SDS011;1551;51.046;7.010;2023-07-20T15:27:08;2.33;;;1.00;;
3081;SDS011;1551;51.046;7.010;2023-07-20T15:29:57;2.10;;;1.00;;
3081;SDS011;1551;51.046;7.010;2023-07-20T15:32:46;3.20;;;1.30;;
3081;SDS011;1551;51.046;7.010;2023-07-20T15:35:35;2.10;;;1.00;;
3081;SDS011;1551;51.046;7.010;2023-07-20T15:38:25;2.33;;;1.00;;
3081;SDS011;1551;51.046;7.010;2023-07-20T15:41:14;2.17;;;0.98;;
3081;SDS011;1551;51.046;7.010;2023-07-20T15:44:03;2.08;;;0.90;;
3081;SDS011;1551;51.046;7.010;2023-07-20T15:46:52;2.63;;;0.90;;
3081;SDS011;1551;51.046;7.010;2023-07-20T15:49:41;1.80;;;0.80;;
3081;SDS011;1551;51.046;7.010;2023-07-20T15:52:32;2.20;;;1.08;;
3081;SDS011;1551;51.046;7.010;2023-07-20T15:55:20;1.97;;;1.00;;
3081;SDS011;1551;51.046;7.010;2023-07-20T15:58:09;2.30;;;1.20;;
3081;SDS011;1551;51.046;7.010;2023-07-20T16:00:58;2.90;;;1.02;;
3081;SDS011;1551;51.046;7.010;2023-07-20T16:03:47;2.17;;;1.00;;
3081;SDS011;1551;51.046;7.010;2023-07-20T16:06:36;3.25;;;1.20;;
3081;SDS011;1551;51.046;7.010;2023-07-20T16:09:26;2.00;;;1.00;;
3081;SDS011;1551;51.046;7.010;2023-07-20T16:12:15;4.40;;;1.70;;
3081;SDS011;1551;51.046;7.010;2023-07-20T16:15:04;2.60;;;1.00;;
3081;SDS011;1551;51.046;7.010;2023-07-20T16:17:53;3.30;;;1.20;;
3081;SDS011;1551;51.046;7.010;2023-07-20T16:20:42;2.00;;;1.10;;
3081;SDS011;1551;51.046;7.010;2023-07-20T16:23:31;2.40;;;1.10;;
3081;SDS011;1551;51.046;7.010;2023-07-20T16:26:20;2.67;;;1.08;;
3081;SDS011;1551;51.046;7.010;2023-07-20T16:29:09;2.92;;;1.40;;
3081;SDS011;1551;51.046;7.010;2023-07-20T16:31:59;2.08;;;0.90;;
3081;SDS011;1551;51.046;7.010;2023-07-20T16:34:48;2.40;;;1.10;;
3081;SDS011;1551;51.046;7.010;2023-07-20T16:37:36;2.38;;;1.10;;
3081;SDS011;1551;51.046;7.010;2023-07-20T16:40:25;4.05;;;2.88;;
3081;SDS011;1551;51.046;7.010;2023-07-20T16:43:14;2.40;;;1.30;;
3081;SDS011;1551;51.046;7.010;2023-07-20T16:46:05;2.50;;;1.10;;
3081;SDS011;1551;51.046;7.010;2023-07-20T16:48:55;3.05;;;1.25;;
3081;SDS011;1551;51.046;7.010;2023-07-20T16:51:44;2.00;;;1.00;;
3081;SDS011;1551;51.046;7.010;2023-07-20T16:54:33;3.80;;;1.10;;
3081;SDS011;1551;51.046;7.010;2023-07-20T16:57:22;2.58;;;1.05;;
3081;SDS011;1551;51.046;7.010;2023-07-20T17:00:11;2.20;;;1.10;;
3081;SDS011;1551;51.046;7.010;2023-07-20T17:03:01;2.00;;;1.00;;
3081;SDS011;1551;51.046;7.010;2023-07-20T17:05:51;2.20;;;1.00;;
3081;SDS011;1551;51.046;7.010;2023-07-20T17:14:45;2.53;;;1.42;;
3081;SDS011;1551;51.046;7.010;2023-07-20T17:17:34;2.63;;;1.20;;
3081;SDS011;1551;51.046;7.010;2023-07-20T17:20:24;2.45;;;1.25;;
3081;SDS011;1551;51.046;7.010;2023-07-20T17:23:14;2.13;;;1.20;;
3081;SDS011;1551;51.046;7.010;2023-07-20T17:26:04;2.10;;;1.00;;
3081;SDS011;1551;51.046;7.010;2023-07-20T17:28:53;1.95;;;0.90;;
3081;SDS011;1551;51.046;7.010;2023-07-20T17:31:41;2.67;;;1.20;;
3081;SDS011;1551;51.046;7.010;2023-07-20T17:34:30;2.60;;;1.40;;
3081;SDS011;1551;51.046;7.010;2023-07-20T17:37:19;3.60;;;1.00;;
3081;SDS011;1551;51.046;7.010;2023-07-20T17:40:10;2.00;;;0.90;;
3081;SDS011;1551;51.046;7.010;2023-07-20T17:42:59;3.75;;;1.00;;
3081;SDS011;1551;51.046;7.010;2023-07-20T17:45:51;2.20;;;0.90;;
3081;SDS011;1551;51.046;7.010;2023-07-20T17:48:41;1.93;;;0.90;;
3081;SDS011;1551;51.046;7.010;2023-07-20T17:51:30;1.80;;;0.90;;
3081;SDS011;1551;51.046;7.010;2023-07-20T17:54:19;2.00;;;0.98;;
3081;SDS011;1551;51.046;7.010;2023-07-20T17:57:08;2.50;;;1.02;;